createdAt,value
2022-10-08T00:01:35.984Z,6.78
2022-10-08T00:04:34.424Z,5.43
2022-10-08T00:07:32.794Z,6.63
2022-10-08T00:13:47.230Z,6.55
2022-10-08T00:16:45.423Z,5.82
2022-10-08T00:19:44.188Z,5.20
2022-10-08T00:22:42.308Z,5.65
2022-10-08T00:25:42.810Z,4.60
2022-10-08T00:28:44.573Z,3.95
2022-10-08T00:31:46.228Z,5.07
2022-10-08T00:34:44.465Z,3.97
2022-10-08T00:37:42.902Z,4.25
2022-10-08T00:43:47.103Z,5.70
2022-10-08T00:46:50.422Z,5.05
2022-10-08T00:49:51.738Z,5.68
2022-10-08T00:52:54.745Z,5.57
2022-10-08T00:55:53.124Z,5.70
2022-10-08T01:01:50.591Z,5.30
2022-10-08T01:04:49.442Z,6.35
2022-10-08T01:08:05.572Z,5.95
2022-10-08T01:11:29.055Z,5.68
2022-10-08T01:14:49.029Z,6.00
2022-10-08T01:18:06.489Z,5.78
2022-10-08T01:21:27.872Z,5.72
2022-10-08T01:25:00.167Z,5.63
2022-10-08T01:28:08.442Z,4.82
2022-10-08T01:34:13.623Z,4.63
2022-10-08T01:37:18.664Z,6.50
2022-10-08T01:40:22.979Z,8.13
2022-10-08T01:43:24.584Z,8.80
2022-10-08T01:46:29.565Z,6.95
2022-10-08T01:49:31.797Z,7.10
2022-10-08T01:52:37.440Z,7.70
2022-10-08T01:55:39.602Z,7.40
2022-10-08T01:58:53.684Z,8.35
2022-10-08T02:02:06.815Z,6.50
2022-10-08T02:05:06.913Z,6.47
2022-10-08T02:08:05.241Z,6.70
2022-10-08T02:11:03.800Z,6.10
2022-10-08T02:14:02.211Z,5.65
2022-10-08T02:17:17.571Z,5.15
2022-10-08T02:20:23.549Z,5.38
2022-10-08T02:23:31.375Z,5.20
2022-10-08T02:26:35.441Z,6.35
2022-10-08T02:29:42.078Z,6.30
2022-10-08T02:33:03.150Z,5.85
2022-10-08T02:36:04.865Z,6.57
2022-10-08T02:39:05.258Z,6.93
2022-10-08T02:42:10.710Z,5.25
2022-10-08T02:45:17.316Z,5.22
2022-10-08T02:48:24.344Z,5.93
2022-10-08T02:51:22.980Z,5.75
2022-10-08T02:54:23.647Z,5.90
2022-10-08T02:57:40.092Z,6.47
2022-10-08T03:00:49.673Z,5.07
2022-10-08T03:03:55.585Z,5.85
2022-10-08T03:06:55.593Z,4.63
2022-10-08T03:09:55.909Z,5.30
2022-10-08T03:13:02.281Z,6.15
2022-10-08T03:16:00.521Z,4.10
2022-10-08T03:19:02.683Z,4.75
2022-10-08T03:22:02.298Z,4.35
2022-10-08T03:25:00.699Z,4.82
2022-10-08T03:27:58.915Z,4.90
2022-10-08T03:30:57.493Z,4.45
2022-10-08T03:33:56.552Z,5.50
2022-10-08T03:36:55.084Z,4.38
2022-10-08T03:39:53.238Z,4.28
2022-10-08T03:42:52.348Z,4.57
2022-10-08T03:45:54.579Z,4.47
2022-10-08T03:48:53.275Z,5.03
2022-10-08T03:51:51.480Z,4.47
2022-10-08T03:54:49.887Z,4.43
2022-10-08T03:57:48.249Z,4.30
2022-10-08T04:01:01.456Z,3.45
2022-10-08T04:03:59.654Z,5.38
2022-10-08T04:06:58.402Z,6.53
2022-10-08T04:09:56.586Z,6.82
2022-10-08T04:12:55.037Z,5.97
2022-10-08T04:15:53.284Z,7.13
2022-10-08T04:18:51.907Z,7.25
2022-10-08T04:21:50.040Z,6.53
2022-10-08T04:24:48.465Z,7.05
2022-10-08T04:27:49.672Z,7.65
2022-10-08T04:30:57.094Z,8.45
2022-10-08T04:33:55.396Z,8.95
2022-10-08T04:36:53.841Z,7.93
2022-10-08T04:39:52.106Z,9.32
2022-10-08T04:42:52.509Z,9.50
2022-10-08T04:45:50.677Z,11.40
2022-10-08T04:48:51.993Z,11.45
2022-10-08T04:51:50.154Z,12.85
2022-10-08T04:54:49.220Z,11.23
2022-10-08T04:57:47.340Z,12.07
2022-10-08T05:00:45.944Z,11.57
2022-10-08T05:03:47.583Z,9.50
2022-10-08T05:06:46.014Z,13.48
2022-10-08T05:09:44.117Z,8.15
2022-10-08T05:12:42.569Z,11.32
2022-10-08T05:15:40.729Z,11.05
2022-10-08T05:18:40.340Z,11.38
2022-10-08T05:21:38.518Z,9.27
2022-10-08T05:24:37.027Z,10.15
2022-10-08T05:27:35.365Z,9.85
2022-10-08T05:30:33.762Z,9.77
2022-10-08T05:33:31.996Z,7.35
2022-10-08T05:36:32.513Z,5.78
2022-10-08T05:39:30.616Z,5.53
2022-10-08T05:42:29.122Z,8.55
2022-10-08T05:45:27.222Z,9.02
2022-10-08T05:48:25.645Z,10.30
2022-10-08T05:51:24.604Z,8.15
2022-10-08T05:54:23.107Z,7.00
2022-10-08T05:57:21.230Z,8.40
2022-10-08T06:00:19.741Z,6.05
2022-10-08T06:03:17.850Z,6.38
2022-10-08T06:06:16.593Z,5.95
2022-10-08T06:09:17.535Z,5.90
2022-10-08T06:12:15.838Z,6.75
2022-10-08T06:15:13.990Z,6.43
2022-10-08T06:18:13.579Z,8.93
2022-10-08T06:21:14.640Z,8.70
2022-10-08T06:24:13.469Z,8.25
2022-10-08T06:27:11.576Z,9.35
2022-10-08T06:30:10.581Z,8.57
2022-10-08T06:33:10.216Z,8.80
2022-10-08T06:36:16.048Z,12.07
2022-10-08T06:39:16.410Z,10.63
2022-10-08T06:42:14.794Z,11.20
2022-10-08T06:45:12.931Z,11.93
2022-10-08T06:48:12.547Z,11.10
2022-10-08T06:51:13.901Z,10.27
2022-10-08T06:54:12.426Z,11.18
2022-10-08T06:57:10.545Z,9.60
2022-10-08T07:00:09.610Z,10.52
2022-10-08T07:03:07.835Z,10.20
2022-10-08T07:06:09.169Z,8.73
2022-10-08T07:09:08.125Z,9.60
2022-10-08T07:12:06.790Z,10.70
2022-10-08T07:15:05.317Z,13.27
2022-10-08T07:18:05.067Z,11.95
2022-10-08T07:21:03.999Z,11.13
2022-10-08T07:24:02.743Z,11.13
2022-10-08T07:27:01.836Z,12.13
2022-10-08T07:30:00.451Z,11.05
2022-10-08T07:33:00.747Z,11.32
2022-10-08T07:36:15.443Z,13.25
2022-10-08T07:39:15.755Z,13.48
2022-10-08T07:42:18.138Z,12.88
2022-10-08T07:45:18.055Z,15.80
2022-10-08T07:48:18.527Z,16.45
2022-10-08T07:51:19.927Z,16.08
2022-10-08T07:54:20.116Z,15.50
2022-10-08T07:57:18.265Z,14.93
2022-10-08T08:00:16.899Z,16.30
2022-10-08T08:03:15.302Z,15.88
2022-10-08T08:06:16.356Z,14.93
2022-10-08T08:09:14.932Z,16.02
2022-10-08T08:12:13.886Z,16.85
2022-10-08T08:15:20.677Z,17.73
2022-10-08T08:18:19.183Z,17.08
2022-10-08T08:21:20.576Z,15.73
2022-10-08T08:24:19.245Z,15.70
2022-10-08T08:27:18.428Z,15.25
2022-10-08T08:30:16.881Z,16.25
2022-10-08T08:33:15.505Z,15.70
2022-10-08T08:36:14.010Z,16.67
2022-10-08T08:39:17.899Z,17.08
2022-10-08T08:42:43.383Z,15.32
2022-10-08T08:45:46.934Z,13.75
2022-10-08T08:48:47.293Z,15.52
2022-10-08T08:51:45.534Z,15.82
2022-10-08T08:54:47.348Z,15.35
2022-10-08T08:57:59.756Z,17.92
2022-10-08T09:01:13.684Z,15.70
2022-10-08T09:04:23.762Z,16.25
2022-10-08T09:07:28.197Z,15.15
2022-10-08T09:10:39.673Z,16.33
2022-10-08T09:14:00.191Z,16.65
2022-10-08T09:17:00.714Z,18.67
2022-10-08T09:20:00.888Z,17.30
2022-10-08T09:22:59.892Z,14.98
2022-10-08T09:26:04.979Z,16.30
2022-10-08T09:29:05.492Z,18.92
2022-10-08T09:32:04.884Z,16.02
2022-10-08T09:35:10.766Z,19.08
2022-10-08T09:38:20.690Z,19.38
2022-10-08T09:41:20.192Z,17.58
2022-10-08T09:44:22.857Z,15.48
2022-10-08T09:47:23.343Z,14.98
2022-10-08T09:50:22.918Z,16.27
2022-10-08T09:53:23.312Z,16.33
2022-10-08T09:56:28.043Z,12.65
2022-10-08T09:59:30.847Z,12.02
2022-10-08T10:02:35.329Z,12.95
2022-10-08T10:05:36.517Z,13.32
2022-10-08T10:08:56.500Z,12.02
2022-10-08T10:12:02.118Z,12.32
2022-10-08T10:15:04.901Z,10.55
2022-10-08T10:18:09.330Z,11.63
2022-10-08T10:21:14.364Z,11.30
2022-10-08T10:24:34.050Z,11.68
2022-10-08T10:27:39.015Z,10.77
2022-10-08T10:30:52.542Z,11.80
2022-10-08T10:34:02.916Z,12.48
2022-10-08T10:37:05.197Z,12.85
2022-10-08T10:40:30.001Z,11.05
2022-10-08T10:43:38.606Z,10.68
2022-10-08T10:46:44.611Z,11.00
2022-10-08T10:49:44.322Z,9.88
2022-10-08T10:53:05.741Z,10.18
2022-10-08T10:56:20.572Z,9.73
2022-10-08T10:59:34.033Z,10.63
2022-10-08T11:02:51.831Z,10.75
2022-10-08T11:06:12.860Z,12.65
2022-10-08T11:09:34.534Z,10.40
2022-10-08T11:12:45.204Z,26.63
2022-10-08T11:16:08.303Z,45.05
2022-10-08T11:19:17.121Z,34.72
2022-10-08T11:22:45.167Z,20.85
2022-10-08T11:26:23.106Z,16.13
2022-10-08T11:29:41.034Z,10.80
2022-10-08T11:32:41.970Z,14.50
2022-10-08T11:36:02.445Z,16.90
2022-10-08T11:39:19.618Z,10.70
2022-10-08T11:42:43.961Z,10.25
2022-10-08T11:45:46.756Z,9.73
2022-10-08T11:48:44.948Z,8.70
2022-10-08T11:51:52.710Z,9.20
2022-10-08T11:54:55.345Z,8.60
2022-10-08T11:58:18.231Z,9.27
2022-10-08T12:01:16.564Z,8.68
2022-10-08T12:04:22.641Z,8.27
2022-10-08T12:07:38.475Z,8.23
2022-10-08T12:10:39.501Z,8.95
2022-10-08T12:13:37.956Z,10.05
2022-10-08T12:17:07.359Z,8.07
2022-10-08T12:20:27.356Z,13.50
2022-10-08T12:23:40.364Z,13.85
2022-10-08T12:27:13.708Z,16.20
2022-10-08T12:30:14.638Z,15.45
2022-10-08T12:33:13.529Z,15.32
2022-10-08T12:36:22.241Z,13.80
2022-10-08T12:39:41.121Z,14.35
2022-10-08T12:42:42.845Z,15.10
2022-10-08T12:45:55.392Z,15.80
2022-10-08T12:49:01.868Z,16.52
2022-10-08T12:52:12.192Z,15.27
2022-10-08T12:55:18.027Z,15.50
2022-10-08T12:58:19.628Z,15.40
2022-10-08T13:01:20.594Z,13.35
2022-10-08T13:04:24.012Z,14.10
2022-10-08T13:07:29.478Z,13.27
2022-10-08T13:10:29.997Z,14.43
2022-10-08T13:13:50.678Z,14.40
2022-10-08T13:16:49.314Z,12.98
2022-10-08T13:19:47.957Z,13.60
2022-10-08T13:22:46.270Z,12.85
2022-10-08T13:25:44.886Z,12.27
2022-10-08T13:28:59.836Z,11.00
2022-10-08T13:32:23.469Z,11.98
2022-10-08T13:35:24.370Z,9.95
2022-10-08T13:38:27.666Z,10.23
2022-10-08T13:41:26.077Z,10.38
2022-10-08T13:44:26.167Z,10.60
2022-10-08T13:47:24.556Z,9.18
2022-10-08T13:50:24.235Z,9.18
2022-10-08T13:53:24.553Z,8.73
2022-10-08T13:56:24.740Z,8.68
2022-10-08T13:59:26.986Z,8.55
2022-10-08T14:02:28.150Z,7.65
2022-10-08T14:05:29.154Z,8.02
2022-10-08T14:08:30.320Z,7.90
2022-10-08T14:11:28.535Z,8.13
2022-10-08T14:14:28.863Z,7.38
2022-10-08T14:17:27.415Z,7.13
2022-10-08T14:20:26.095Z,6.72
2022-10-08T14:23:24.251Z,6.18
2022-10-08T14:26:22.961Z,5.60
2022-10-08T14:29:21.511Z,6.53
2022-10-08T14:32:20.021Z,6.10
2022-10-08T14:35:18.443Z,6.68
2022-10-08T14:38:18.920Z,6.07
2022-10-08T14:41:17.470Z,6.40
2022-10-08T14:44:17.231Z,6.53
2022-10-08T14:47:16.013Z,7.25
2022-10-08T14:50:14.985Z,6.93
2022-10-08T14:53:14.467Z,6.85
2022-10-08T14:56:13.329Z,7.18
2022-10-08T14:59:12.340Z,7.28
2022-10-08T15:02:12.256Z,7.82
2022-10-08T15:05:10.537Z,7.40
2022-10-08T15:08:09.021Z,7.20
2022-10-08T15:11:07.804Z,7.60
2022-10-08T15:14:06.667Z,7.32
2022-10-08T15:17:04.880Z,7.97
2022-10-08T15:20:03.919Z,6.80
2022-10-08T15:23:02.467Z,6.35
2022-10-08T15:26:04.070Z,16.40
2022-10-08T15:29:02.606Z,20.55
2022-10-08T15:32:01.163Z,15.25
2022-10-08T15:34:59.663Z,19.17
2022-10-08T15:37:58.112Z,16.95
2022-10-08T15:41:03.153Z,10.93
2022-10-08T15:44:23.141Z,14.05
2022-10-08T15:47:21.351Z,11.85
2022-10-08T15:50:19.837Z,11.35
2022-10-08T15:53:18.121Z,9.63
2022-10-08T15:56:17.259Z,10.18
2022-10-08T15:59:15.465Z,9.15
2022-10-08T16:02:17.400Z,10.20
2022-10-08T16:05:16.237Z,9.15
2022-10-08T16:08:14.707Z,7.75
2022-10-08T16:11:23.069Z,7.45
2022-10-08T16:14:25.020Z,8.45
2022-10-08T16:17:23.568Z,6.53
2022-10-08T16:20:22.191Z,6.00
2022-10-08T16:23:20.405Z,6.82
2022-10-08T16:26:22.373Z,7.88
2022-10-08T16:29:20.681Z,5.72
2022-10-08T16:32:19.221Z,6.65
2022-10-08T16:35:17.482Z,5.82
2022-10-08T16:38:16.086Z,6.10
2022-10-08T16:41:18.064Z,6.32
2022-10-08T16:44:19.509Z,6.85
2022-10-08T16:47:17.721Z,6.22
2022-10-08T16:50:16.277Z,6.63
2022-10-08T16:53:14.759Z,6.10
2022-10-08T16:56:13.684Z,7.47
2022-10-08T16:59:15.095Z,7.47
2022-10-08T17:02:13.584Z,7.00
2022-10-08T17:05:11.827Z,6.40
2022-10-08T17:08:10.354Z,6.45
2022-10-08T17:11:10.756Z,5.93
2022-10-08T17:14:10.704Z,6.15
2022-10-08T17:17:09.019Z,4.75
2022-10-08T17:20:08.101Z,5.30
2022-10-08T17:23:06.617Z,5.35
2022-10-08T17:26:08.510Z,5.30
2022-10-08T17:29:09.239Z,6.03
2022-10-08T17:32:08.144Z,6.70
2022-10-08T17:35:06.705Z,5.80
2022-10-08T17:38:05.296Z,5.97
2022-10-08T17:41:14.603Z,6.43
2022-10-08T17:44:13.696Z,6.40
2022-10-08T17:47:12.086Z,6.47
2022-10-08T17:50:10.549Z,6.95
2022-10-08T17:53:08.631Z,7.85
2022-10-08T17:56:09.561Z,6.70
2022-10-08T17:59:08.556Z,8.57
2022-10-08T18:02:07.077Z,9.25
2022-10-08T18:05:05.580Z,9.38
2022-10-08T18:08:04.128Z,9.02
2022-10-08T18:11:04.661Z,12.32
2022-10-08T18:14:04.628Z,10.98
2022-10-08T18:17:02.797Z,11.85
2022-10-08T18:20:01.201Z,11.02
2022-10-08T18:22:59.330Z,11.32
2022-10-08T18:26:21.371Z,13.02
2022-10-08T18:29:19.502Z,12.27
2022-10-08T18:32:17.916Z,12.85
2022-10-08T18:35:16.421Z,12.48
2022-10-08T18:38:15.141Z,10.38
2022-10-08T18:41:17.364Z,11.18
2022-10-08T18:44:21.042Z,10.50
2022-10-08T18:47:19.137Z,11.68
2022-10-08T18:50:17.589Z,10.02
2022-10-08T18:53:15.759Z,10.80
2022-10-08T18:56:18.344Z,11.13
2022-10-08T18:59:17.607Z,10.65
2022-10-08T19:02:16.183Z,10.02
2022-10-08T19:05:14.359Z,11.00
2022-10-08T19:08:12.705Z,12.23
2022-10-08T19:11:14.133Z,11.77
2022-10-08T19:14:14.422Z,11.98
2022-10-08T19:17:13.042Z,12.40
2022-10-08T19:20:11.795Z,13.13
2022-10-08T19:23:09.900Z,11.43
2022-10-08T19:26:08.569Z,12.48
2022-10-08T19:29:06.678Z,11.60
2022-10-08T19:32:05.194Z,9.88
2022-10-08T19:35:03.482Z,9.52
2022-10-08T19:38:02.381Z,9.02
2022-10-08T19:41:00.455Z,8.65
2022-10-08T19:43:59.550Z,8.82
2022-10-08T19:46:57.779Z,8.05
2022-10-08T19:49:56.171Z,7.78
2022-10-08T19:55:54.444Z,10.18
2022-10-08T19:58:53.836Z,9.18
2022-10-08T20:01:52.317Z,11.07
2022-10-08T20:04:50.404Z,9.77
2022-10-08T20:07:48.835Z,10.73
2022-10-08T20:13:47.060Z,10.15
2022-10-08T20:16:45.250Z,8.38
2022-10-08T20:19:43.855Z,10.05
2022-10-08T20:22:42.194Z,8.88
2022-10-08T20:25:42.722Z,8.13
2022-10-08T20:28:41.048Z,8.00
2022-10-08T20:31:43.927Z,7.65
2022-10-08T20:34:42.075Z,7.60
2022-10-08T20:37:40.650Z,8.88
2022-10-08T20:40:39.471Z,8.88
2022-10-08T20:43:39.209Z,9.07
2022-10-08T20:46:38.747Z,10.50
2022-10-08T20:49:37.338Z,8.48
2022-10-08T20:52:35.585Z,10.10
2022-10-08T20:55:37.041Z,11.30
2022-10-08T20:58:36.449Z,12.63
2022-10-08T21:01:38.683Z,12.18
2022-10-08T21:04:36.933Z,11.27
2022-10-08T21:07:35.383Z,10.80
2022-10-08T21:13:35.154Z,10.43
2022-10-08T21:16:36.884Z,11.95
2022-10-08T21:19:35.482Z,13.27
2022-10-08T21:22:33.624Z,12.65
2022-10-08T21:25:32.120Z,12.27
2022-10-08T21:28:31.047Z,11.85
2022-10-08T21:31:32.602Z,12.32
2022-10-08T21:34:30.839Z,10.98
2022-10-08T21:37:29.462Z,11.73
2022-10-08T21:43:25.918Z,12.00
2022-10-08T21:46:26.730Z,11.48
2022-10-08T21:49:25.617Z,11.82
2022-10-08T21:52:23.892Z,12.63
2022-10-08T21:55:22.879Z,12.88
2022-10-08T21:58:21.422Z,12.73
2022-10-08T22:01:32.004Z,12.50
2022-10-08T22:04:30.120Z,13.23
2022-10-08T22:07:28.590Z,13.65
2022-10-08T22:13:24.861Z,13.52
2022-10-08T22:19:21.965Z,11.50
2022-10-08T22:22:20.271Z,11.32
2022-10-08T22:25:18.667Z,9.05
2022-10-08T22:31:17.096Z,8.50
2022-10-08T22:34:15.377Z,7.95
2022-10-08T22:37:13.813Z,8.05
2022-10-08T22:43:10.186Z,7.35
2022-10-08T22:46:11.789Z,6.70
2022-10-08T22:49:12.645Z,5.13
2022-10-08T22:52:10.812Z,6.90
2022-10-08T22:55:09.313Z,6.07
2022-10-08T22:58:07.520Z,6.72
2022-10-08T23:01:08.365Z,7.53
2022-10-08T23:04:06.588Z,6.60
2022-10-08T23:07:05.128Z,7.65
2022-10-08T23:10:03.448Z,9.35
2022-10-08T23:13:01.899Z,8.05
2022-10-08T23:19:06.803Z,6.90
2022-10-08T23:22:05.136Z,5.97
2022-10-08T23:25:03.853Z,6.63
2022-10-08T23:28:02.151Z,6.68
2022-10-08T23:31:10.416Z,8.02
2022-10-08T23:34:09.359Z,8.55
2022-10-08T23:37:07.871Z,8.68
2022-10-08T23:40:06.330Z,8.90
2022-10-08T23:43:04.843Z,9.82
2022-10-08T23:46:03.768Z,8.77
2022-10-08T23:49:02.288Z,9.85
2022-10-08T23:52:00.592Z,9.18
2022-10-08T23:54:59.011Z,9.23
